EWG1SP LSZH-EDDL
Flight info
| Callsign | EWG1SP |
|---|---|
| Flight time | 0h 54m |
| Altitude | 30000 |
| Route | VEBIT T10 TORPA DCT EDOPI DCT GIVOR DCT SORAL DCT IBERA DCT DIK/N0424F310 N853 ARCKY T853 NVO T857 BIKMU BIKMU1A |
| Aircraft | A320/M-SDE3FGHIRWY/LB1 |
Departure
| Time | 2026-05-05 18:50 |
|---|---|
| Airport | Zürich Airport (LSZH) |
Arrival
| Time | 2026-05-05 19:45 |
|---|---|
| Airport | Düsseldorf Airport (EDDL) |
| Time | Latitude | Longitude | Altitude | Speed | Heading |
|---|---|---|---|---|---|
| 2026-05-05 18:09 | 47.45429 | 8.55746 | 1405 ft | 0 kts | 186° |
| 2026-05-05 18:40 | 47.45434 | 8.55747 | 1404 ft | 2 kts | 186° |
| 2026-05-05 18:40 | 47.45454 | 8.55750 | 1401 ft | 3 kts | 186° |
| 2026-05-05 18:41 | 47.45471 | 8.55753 | 1405 ft | 2 kts | 185° |
| 2026-05-05 18:41 | 47.45490 | 8.55753 | 1404 ft | 3 kts | 155° |
| 2026-05-05 18:41 | 47.45504 | 8.55737 | 1407 ft | 3 kts | 119° |
| 2026-05-05 18:41 | 47.45511 | 8.55711 | 1404 ft | 2 kts | 98° |
| 2026-05-05 18:42 | 47.45513 | 8.55697 | 1407 ft | 1 kts | 96° |
| 2026-05-05 18:42 | 47.45513 | 8.55695 | 1407 ft | 0 kts | 96° |
| 2026-05-05 18:45 | 47.45512 | 8.55707 | 1405 ft | 1 kts | 97° |
| 2026-05-05 18:45 | 47.45509 | 8.55740 | 1400 ft | 5 kts | 97° |
| 2026-05-05 18:45 | 47.45503 | 8.55817 | 1406 ft | 10 kts | 96° |
| 2026-05-05 18:45 | 47.45494 | 8.55937 | 1397 ft | 14 kts | 96° |
| 2026-05-05 18:46 | 47.45483 | 8.56101 | 1397 ft | 18 kts | 96° |
| 2026-05-05 18:46 | 47.45510 | 8.56272 | 1400 ft | 18 kts | 50° |
| 2026-05-05 18:46 | 47.45583 | 8.56406 | 1400 ft | 12 kts | 53° |
| 2026-05-05 18:46 | 47.45591 | 8.56517 | 1402 ft | 10 kts | 96° |
| 2026-05-05 18:47 | 47.45585 | 8.56609 | 1397 ft | 8 kts | 96° |
| 2026-05-05 18:47 | 47.45579 | 8.56693 | 1397 ft | 10 kts | 95° |
| 2026-05-05 18:47 | 47.45571 | 8.56811 | 1397 ft | 13 kts | 97° |
| 2026-05-05 18:47 | 47.45562 | 8.56953 | 1397 ft | 13 kts | 84° |
| 2026-05-05 18:48 | 47.45591 | 8.57014 | 1402 ft | 5 kts | 33° |
| 2026-05-05 18:48 | 47.45632 | 8.57024 | 1398 ft | 9 kts | 6° |
| 2026-05-05 18:48 | 47.45663 | 8.56978 | 1399 ft | 6 kts | 272° |
| 2026-05-05 18:48 | 47.45664 | 8.56966 | 1398 ft | 0 kts | 275° |
| 2026-05-05 18:49 | 47.45666 | 8.56934 | 1399 ft | 16 kts | 276° |
| 2026-05-05 18:49 | 47.45707 | 8.56355 | 1404 ft | 92 kts | 276° |
| 2026-05-05 18:50 | 47.45795 | 8.55108 | 1402 ft | 149 kts | 275° |
| 2026-05-05 18:50 | 47.45900 | 8.53479 | 1827 ft | 159 kts | 275° |
| 2026-05-05 18:50 | 47.46013 | 8.51839 | 2515 ft | 161 kts | 274° |
| 2026-05-05 18:50 | 47.46139 | 8.50199 | 3084 ft | 166 kts | 274° |
| 2026-05-05 18:51 | 47.46239 | 8.48386 | 3368 ft | 185 kts | 264° |
| 2026-05-05 18:51 | 47.45707 | 8.46608 | 3661 ft | 205 kts | 224° |
| 2026-05-05 18:51 | 47.44528 | 8.45287 | 4006 ft | 226 kts | 219° |
| 2026-05-05 18:51 | 47.43369 | 8.43606 | 4580 ft | 240 kts | 232° |
| 2026-05-05 18:52 | 47.42305 | 8.41599 | 5114 ft | 251 kts | 235° |
| 2026-05-05 18:52 | 47.41294 | 8.39488 | 5894 ft | 257 kts | 236° |
| 2026-05-05 18:52 | 47.40277 | 8.37307 | 6794 ft | 258 kts | 236° |
| 2026-05-05 18:52 | 47.39264 | 8.35125 | 7683 ft | 258 kts | 235° |
| 2026-05-05 18:53 | 47.38347 | 8.32826 | 8512 ft | 263 kts | 246° |
| 2026-05-05 18:53 | 47.37641 | 8.30358 | 9519 ft | 259 kts | 244° |
| 2026-05-05 18:53 | 47.36861 | 8.27963 | 10321 ft | 261 kts | 242° |
| 2026-05-05 18:53 | 47.35975 | 8.25463 | 10459 ft | 289 kts | 240° |
| 2026-05-05 18:54 | 47.34955 | 8.22778 | 10719 ft | 308 kts | 239° |
| 2026-05-05 18:54 | 47.33877 | 8.20002 | 11341 ft | 313 kts | 239° |
| 2026-05-05 18:54 | 47.32805 | 8.17195 | 12132 ft | 315 kts | 240° |
| 2026-05-05 18:54 | 47.31743 | 8.14339 | 12815 ft | 321 kts | 240° |
| 2026-05-05 18:55 | 47.30674 | 8.11426 | 13510 ft | 325 kts | 241° |
| 2026-05-05 18:55 | 47.29620 | 8.08454 | 14122 ft | 330 kts | 242° |
| 2026-05-05 18:55 | 47.28567 | 8.05435 | 14742 ft | 333 kts | 242° |
| 2026-05-05 18:55 | 47.27662 | 8.02282 | 15382 ft | 337 kts | 253° |
| 2026-05-05 18:56 | 47.27271 | 7.98859 | 15968 ft | 344 kts | 264° |
| 2026-05-05 18:56 | 47.27382 | 7.95299 | 16508 ft | 352 kts | 276° |
| 2026-05-05 18:56 | 47.27760 | 7.91734 | 17154 ft | 354 kts | 276° |
| 2026-05-05 18:56 | 47.28115 | 7.88134 | 17767 ft | 357 kts | 275° |
| 2026-05-05 18:57 | 47.28452 | 7.84491 | 18339 ft | 360 kts | 275° |
| 2026-05-05 18:57 | 47.28786 | 7.80818 | 18843 ft | 364 kts | 275° |
| 2026-05-05 18:57 | 47.29124 | 7.77096 | 19360 ft | 367 kts | 275° |
| 2026-05-05 18:57 | 47.29467 | 7.73352 | 19879 ft | 370 kts | 275° |
| 2026-05-05 18:58 | 47.29817 | 7.69571 | 20413 ft | 374 kts | 275° |
| 2026-05-05 18:58 | 47.30177 | 7.65760 | 20943 ft | 377 kts | 275° |
| 2026-05-05 18:58 | 47.30670 | 7.61943 | 21452 ft | 383 kts | 282° |
| 2026-05-05 18:58 | 47.31480 | 7.58180 | 21969 ft | 387 kts | 284° |
| 2026-05-05 18:59 | 47.32312 | 7.54383 | 22474 ft | 391 kts | 284° |
| 2026-05-05 18:59 | 47.33149 | 7.50546 | 22956 ft | 394 kts | 284° |
| 2026-05-05 18:59 | 47.33988 | 7.46686 | 23447 ft | 397 kts | 284° |
| 2026-05-05 18:59 | 47.34830 | 7.42794 | 23834 ft | 401 kts | 284° |
| 2026-05-05 19:00 | 47.35680 | 7.38862 | 24246 ft | 403 kts | 284° |
| 2026-05-05 19:00 | 47.36522 | 7.34968 | 24653 ft | 405 kts | 284° |
| 2026-05-05 19:00 | 47.37379 | 7.31005 | 25052 ft | 407 kts | 284° |
| 2026-05-05 19:00 | 47.38238 | 7.27020 | 25443 ft | 408 kts | 284° |
| 2026-05-05 19:01 | 47.39097 | 7.23012 | 25807 ft | 410 kts | 283° |
| 2026-05-05 19:01 | 47.39958 | 7.18986 | 26174 ft | 412 kts | 283° |
| 2026-05-05 19:01 | 47.40791 | 7.14932 | 26531 ft | 413 kts | 280° |
| 2026-05-05 19:01 | 47.41415 | 7.10787 | 26875 ft | 414 kts | 278° |
| 2026-05-05 19:02 | 47.42028 | 7.06625 | 27237 ft | 416 kts | 278° |
| 2026-05-05 19:02 | 47.42641 | 7.02429 | 27542 ft | 419 kts | 278° |
| 2026-05-05 19:02 | 47.43258 | 6.98215 | 27867 ft | 421 kts | 278° |
| 2026-05-05 19:02 | 47.43881 | 6.93970 | 28198 ft | 424 kts | 278° |
| 2026-05-05 19:03 | 47.44505 | 6.89707 | 28522 ft | 426 kts | 278° |
| 2026-05-05 19:03 | 47.45128 | 6.85419 | 28844 ft | 427 kts | 278° |
| 2026-05-05 19:03 | 47.45747 | 6.81122 | 29154 ft | 429 kts | 278° |
| 2026-05-05 19:03 | 47.46501 | 6.76836 | 29459 ft | 435 kts | 287° |
| 2026-05-05 19:04 | 47.47864 | 6.72805 | 29731 ft | 444 kts | 300° |
| 2026-05-05 19:04 | 47.49857 | 6.69261 | 29991 ft | 453 kts | 313° |
| 2026-05-05 19:04 | 47.52400 | 6.66443 | 30201 ft | 462 kts | 328° |
| 2026-05-05 19:04 | 47.55380 | 6.64577 | 30390 ft | 470 kts | 342° |
| 2026-05-05 19:05 | 47.58615 | 6.63711 | 30603 ft | 474 kts | 351° |
| 2026-05-05 19:05 | 47.61886 | 6.63067 | 30816 ft | 475 kts | 351° |
| 2026-05-05 19:05 | 47.65161 | 6.62418 | 31094 ft | 475 kts | 351° |
| 2026-05-05 19:05 | 47.68431 | 6.61765 | 31432 ft | 473 kts | 351° |
| 2026-05-05 19:06 | 47.71687 | 6.61109 | 31742 ft | 472 kts | 350° |
| 2026-05-05 19:06 | 47.74938 | 6.60453 | 32063 ft | 471 kts | 350° |
| 2026-05-05 19:06 | 47.78183 | 6.59783 | 32358 ft | 470 kts | 348° |
| 2026-05-05 19:06 | 47.81368 | 6.58728 | 32648 ft | 468 kts | 343° |
| 2026-05-05 19:07 | 47.84526 | 6.57576 | 32958 ft | 467 kts | 343° |
| 2026-05-05 19:07 | 47.86607 | 6.56769 | 33158 ft | 466 kts | 343° |
| 2026-05-05 19:07 | 47.90798 | 6.55128 | 33562 ft | 465 kts | 343° |
| 2026-05-05 19:07 | 47.93924 | 6.53905 | 33865 ft | 464 kts | 343° |
| 2026-05-05 19:08 | 47.97046 | 6.52686 | 34115 ft | 464 kts | 343° |
| 2026-05-05 19:08 | 48.00170 | 6.51470 | 34351 ft | 464 kts | 343° |
| 2026-05-05 19:08 | 48.03290 | 6.50256 | 34566 ft | 464 kts | 343° |
| 2026-05-05 19:08 | 48.06414 | 6.49035 | 34773 ft | 464 kts | 343° |
| 2026-05-05 19:09 | 48.09530 | 6.47803 | 34972 ft | 463 kts | 343° |
| 2026-05-05 19:09 | 48.12650 | 6.46572 | 35170 ft | 464 kts | 343° |
| 2026-05-05 19:09 | 48.15736 | 6.45356 | 35354 ft | 464 kts | 343° |
| 2026-05-05 19:09 | 48.18899 | 6.44111 | 35542 ft | 464 kts | 343° |
| 2026-05-05 19:10 | 48.22067 | 6.43192 | 35719 ft | 466 kts | 355° |
| 2026-05-05 19:10 | 48.25271 | 6.43110 | 35850 ft | 467 kts | 359° |
| 2026-05-05 19:10 | 48.31757 | 6.43146 | 35847 ft | 465 kts | 359° |
| 2026-05-05 19:11 | 48.38226 | 6.43225 | 35847 ft | 464 kts | 359° |
| 2026-05-05 19:11 | 48.44689 | 6.43284 | 35845 ft | 464 kts | 359° |
| 2026-05-05 19:12 | 48.51151 | 6.43331 | 35845 ft | 465 kts | 360° |
| 2026-05-05 19:12 | 48.57620 | 6.43381 | 35842 ft | 465 kts | 359° |
| 2026-05-05 19:13 | 48.64094 | 6.43418 | 35846 ft | 465 kts | 359° |
| 2026-05-05 19:13 | 48.69473 | 6.43456 | 35848 ft | 465 kts | 360° |
| 2026-05-05 19:14 | 48.75958 | 6.43501 | 35850 ft | 465 kts | 359° |
| 2026-05-05 19:14 | 48.82431 | 6.43555 | 35852 ft | 465 kts | 360° |
| 2026-05-05 19:15 | 48.88913 | 6.43606 | 35852 ft | 465 kts | 359° |
| 2026-05-05 19:15 | 48.95387 | 6.43647 | 35853 ft | 465 kts | 360° |
| 2026-05-05 19:16 | 49.01850 | 6.43686 | 35856 ft | 464 kts | 0° |
| 2026-05-05 19:16 | 49.08310 | 6.43739 | 35852 ft | 464 kts | 360° |
| 2026-05-05 19:17 | 49.14676 | 6.42433 | 35846 ft | 462 kts | 344° |
| 2026-05-05 19:17 | 49.20882 | 6.39868 | 35847 ft | 462 kts | 344° |
| 2026-05-05 19:18 | 49.27082 | 6.37321 | 35843 ft | 461 kts | 344° |
| 2026-05-05 19:18 | 49.33280 | 6.34781 | 35839 ft | 461 kts | 344° |
| 2026-05-05 19:19 | 49.39474 | 6.32219 | 35828 ft | 461 kts | 344° |
| 2026-05-05 19:19 | 49.45622 | 6.29666 | 35821 ft | 461 kts | 345° |
| 2026-05-05 19:20 | 49.51816 | 6.27098 | 35830 ft | 461 kts | 345° |
| 2026-05-05 19:20 | 49.58018 | 6.24545 | 35817 ft | 462 kts | 345° |
| 2026-05-05 19:21 | 49.64231 | 6.22008 | 35817 ft | 462 kts | 345° |
| 2026-05-05 19:21 | 49.70452 | 6.19453 | 35817 ft | 462 kts | 345° |
| 2026-05-05 19:22 | 49.76664 | 6.16894 | 35806 ft | 461 kts | 345° |
| 2026-05-05 19:22 | 49.79759 | 6.15616 | 35274 ft | 460 kts | 345° |
| 2026-05-05 19:22 | 49.82853 | 6.14335 | 34575 ft | 461 kts | 346° |
| 2026-05-05 19:23 | 49.85984 | 6.13319 | 33944 ft | 459 kts | 355° |
| 2026-05-05 19:23 | 49.89141 | 6.13019 | 33665 ft | 448 kts | 4° |
| 2026-05-05 19:23 | 49.92253 | 6.13089 | 33846 ft | 449 kts | 3° |
| 2026-05-05 19:23 | 49.95385 | 6.13119 | 33258 ft | 449 kts | 2° |
| 2026-05-05 19:24 | 49.98496 | 6.13115 | 32688 ft | 446 kts | 2° |
| 2026-05-05 19:24 | 50.01580 | 6.13097 | 32174 ft | 441 kts | 2° |
| 2026-05-05 19:24 | 50.04637 | 6.13081 | 31659 ft | 437 kts | 2° |
| 2026-05-05 19:24 | 50.07664 | 6.13077 | 31133 ft | 434 kts | 2° |
| 2026-05-05 19:25 | 50.10630 | 6.13090 | 30661 ft | 430 kts | 2° |
| 2026-05-05 19:25 | 50.13603 | 6.13112 | 30204 ft | 426 kts | 2° |
| 2026-05-05 19:25 | 50.16595 | 6.13133 | 29730 ft | 422 kts | 2° |
| 2026-05-05 19:25 | 50.19515 | 6.13152 | 29199 ft | 418 kts | 2° |
| 2026-05-05 19:26 | 50.22377 | 6.13174 | 28543 ft | 418 kts | 2° |
| 2026-05-05 19:26 | 50.25333 | 6.13205 | 27710 ft | 421 kts | 3° |
| 2026-05-05 19:26 | 50.28210 | 6.13668 | 26909 ft | 422 kts | 13° |
| 2026-05-05 19:26 | 50.31015 | 6.14955 | 26163 ft | 421 kts | 24° |
| 2026-05-05 19:27 | 50.33640 | 6.17051 | 25550 ft | 416 kts | 34° |
| 2026-05-05 19:27 | 50.36040 | 6.19519 | 25270 ft | 406 kts | 35° |
| 2026-05-05 19:27 | 50.38343 | 6.21877 | 24958 ft | 398 kts | 35° |
| 2026-05-05 19:27 | 50.40657 | 6.24241 | 24473 ft | 396 kts | 34° |
| 2026-05-05 19:28 | 50.42954 | 6.26594 | 24011 ft | 394 kts | 34° |
| 2026-05-05 19:28 | 50.45240 | 6.28946 | 23520 ft | 392 kts | 34° |
| 2026-05-05 19:28 | 50.47519 | 6.31299 | 22931 ft | 392 kts | 34° |
| 2026-05-05 19:28 | 50.49796 | 6.33643 | 22343 ft | 391 kts | 34° |
| 2026-05-05 19:29 | 50.52105 | 6.35898 | 21830 ft | 390 kts | 32° |
| 2026-05-05 19:29 | 50.54435 | 6.38044 | 21299 ft | 388 kts | 29° |
| 2026-05-05 19:29 | 50.56957 | 6.39533 | 20784 ft | 388 kts | 12° |
| 2026-05-05 19:29 | 50.59629 | 6.40058 | 20280 ft | 386 kts | 6° |
| 2026-05-05 19:30 | 50.62296 | 6.40468 | 19787 ft | 385 kts | 6° |
| 2026-05-05 19:30 | 50.64944 | 6.40855 | 19498 ft | 377 kts | 5° |
| 2026-05-05 19:30 | 50.67521 | 6.41224 | 19351 ft | 366 kts | 6° |
| 2026-05-05 19:30 | 50.70036 | 6.41589 | 19042 ft | 360 kts | 5° |
| 2026-05-05 19:31 | 50.72524 | 6.41955 | 18655 ft | 358 kts | 6° |
| 2026-05-05 19:31 | 50.74997 | 6.42322 | 18263 ft | 356 kts | 6° |
| 2026-05-05 19:31 | 50.77458 | 6.42692 | 17831 ft | 354 kts | 6° |
| 2026-05-05 19:31 | 50.79906 | 6.43064 | 17405 ft | 352 kts | 6° |
| 2026-05-05 19:32 | 50.82333 | 6.43429 | 17005 ft | 349 kts | 6° |
| 2026-05-05 19:32 | 50.84748 | 6.43791 | 16586 ft | 347 kts | 6° |
| 2026-05-05 19:32 | 50.87147 | 6.44150 | 16182 ft | 346 kts | 6° |
| 2026-05-05 19:32 | 50.89534 | 6.44505 | 15794 ft | 343 kts | 6° |
| 2026-05-05 19:33 | 50.91906 | 6.44856 | 15412 ft | 342 kts | 6° |
| 2026-05-05 19:33 | 50.94270 | 6.45209 | 15035 ft | 340 kts | 6° |
| 2026-05-05 19:33 | 50.96618 | 6.45567 | 14650 ft | 339 kts | 6° |
| 2026-05-05 19:33 | 50.98953 | 6.45922 | 14285 ft | 336 kts | 6° |
| 2026-05-05 19:34 | 51.01275 | 6.46275 | 13933 ft | 334 kts | 6° |
| 2026-05-05 19:34 | 51.03581 | 6.46629 | 13522 ft | 331 kts | 6° |
| 2026-05-05 19:34 | 51.05863 | 6.46978 | 12952 ft | 327 kts | 5° |
| 2026-05-05 19:35 | 51.10341 | 6.47655 | 11558 ft | 319 kts | 5° |
| 2026-05-05 19:35 | 51.12543 | 6.47986 | 10889 ft | 315 kts | 5° |
| 2026-05-05 19:35 | 51.14705 | 6.48315 | 10346 ft | 307 kts | 5° |
| 2026-05-05 19:35 | 51.16782 | 6.48640 | 9969 ft | 294 kts | 5° |
| 2026-05-05 19:36 | 51.18793 | 6.48988 | 9394 ft | 288 kts | 6° |
| 2026-05-05 19:36 | 51.20770 | 6.49330 | 8755 ft | 284 kts | 5° |
| 2026-05-05 19:36 | 51.22724 | 6.49653 | 8112 ft | 281 kts | 5° |
| 2026-05-05 19:36 | 51.24636 | 6.49958 | 7476 ft | 278 kts | 5° |
| 2026-05-05 19:37 | 51.26541 | 6.49853 | 6845 ft | 274 kts | 344° |
| 2026-05-05 19:37 | 51.28190 | 6.48431 | 6224 ft | 270 kts | 316° |
| 2026-05-05 19:37 | 51.29213 | 6.45964 | 5547 ft | 268 kts | 288° |
| 2026-05-05 19:37 | 51.29359 | 6.43015 | 5026 ft | 270 kts | 259° |
| 2026-05-05 19:38 | 51.28600 | 6.40298 | 4577 ft | 270 kts | 230° |
| 2026-05-05 19:38 | 51.27132 | 6.38504 | 4160 ft | 266 kts | 199° |
| 2026-05-05 19:38 | 51.25398 | 6.38123 | 3989 ft | 243 kts | 168° |
| 2026-05-05 19:38 | 51.23895 | 6.39120 | 3721 ft | 231 kts | 140° |
| 2026-05-05 19:39 | 51.22679 | 6.40764 | 3363 ft | 229 kts | 134° |
| 2026-05-05 19:39 | 51.21519 | 6.42493 | 3058 ft | 227 kts | 134° |
| 2026-05-05 19:39 | 51.20382 | 6.44223 | 3004 ft | 227 kts | 134° |
| 2026-05-05 19:39 | 51.19245 | 6.45983 | 3005 ft | 228 kts | 130° |
| 2026-05-05 19:40 | 51.18470 | 6.48110 | 3002 ft | 223 kts | 100° |
| 2026-05-05 19:40 | 51.18403 | 6.50587 | 3010 ft | 227 kts | 85° |
| 2026-05-05 19:40 | 51.18517 | 6.53070 | 3004 ft | 223 kts | 83° |
| 2026-05-05 19:40 | 51.18748 | 6.55501 | 3000 ft | 220 kts | 69° |
| 2026-05-05 19:41 | 51.19485 | 6.57521 | 2998 ft | 207 kts | 52° |
| 2026-05-05 19:41 | 51.20335 | 6.59279 | 2927 ft | 193 kts | 51° |
| 2026-05-05 19:41 | 51.21130 | 6.60926 | 2550 ft | 184 kts | 52° |
| 2026-05-05 19:41 | 51.21881 | 6.62491 | 2243 ft | 172 kts | 51° |
| 2026-05-05 19:42 | 51.22582 | 6.63952 | 1999 ft | 159 kts | 50° |
| 2026-05-05 19:42 | 51.23225 | 6.65308 | 1777 ft | 148 kts | 51° |
| 2026-05-05 19:42 | 51.23846 | 6.66562 | 1544 ft | 138 kts | 50° |
| 2026-05-05 19:42 | 51.24414 | 6.67767 | 1448 ft | 136 kts | 51° |
| 2026-05-05 19:43 | 51.24980 | 6.68957 | 1197 ft | 134 kts | 52° |
| 2026-05-05 19:43 | 51.25537 | 6.70148 | 974 ft | 134 kts | 51° |
| 2026-05-05 19:43 | 51.26104 | 6.71331 | 801 ft | 135 kts | 49° |
| 2026-05-05 19:43 | 51.26675 | 6.72525 | 649 ft | 135 kts | 48° |
| 2026-05-05 19:44 | 51.27237 | 6.73706 | 454 ft | 132 kts | 47° |
| 2026-05-05 19:44 | 51.27805 | 6.74877 | 223 ft | 134 kts | 48° |
| 2026-05-05 19:44 | 51.28364 | 6.76037 | 133 ft | 124 kts | 50° |
| 2026-05-05 19:44 | 51.28738 | 6.76827 | 132 ft | 58 kts | 53° |
| 2026-05-05 19:45 | 51.28926 | 6.77221 | 128 ft | 22 kts | 53° |
| 2026-05-05 19:45 | 51.29012 | 6.77424 | 130 ft | 22 kts | 68° |
| 2026-05-05 19:45 | 51.28983 | 6.77597 | 124 ft | 13 kts | 142° |
| 2026-05-05 19:45 | 51.28965 | 6.77617 | 128 ft | 0 kts | 143° |
| 2026-05-05 19:47 | 51.28962 | 6.77621 | 128 ft | 2 kts | 143° |
| 2026-05-05 19:47 | 51.28941 | 6.77646 | 129 ft | 5 kts | 145° |
| 2026-05-05 19:47 | 51.28901 | 6.77640 | 130 ft | 7 kts | 217° |
| 2026-05-05 19:47 | 51.28869 | 6.77573 | 125 ft | 11 kts | 233° |
| 2026-05-05 19:48 | 51.28808 | 6.77444 | 129 ft | 19 kts | 233° |
| 2026-05-05 19:48 | 51.28727 | 6.77273 | 126 ft | 19 kts | 232° |
| 2026-05-05 19:48 | 51.28651 | 6.77117 | 125 ft | 17 kts | 233° |
| 2026-05-05 19:48 | 51.28584 | 6.76975 | 128 ft | 15 kts | 233° |
| 2026-05-05 19:49 | 51.28534 | 6.76870 | 124 ft | 6 kts | 232° |
| 2026-05-05 19:49 | 51.28518 | 6.76836 | 125 ft | 6 kts | 232° |
| 2026-05-05 19:49 | 51.28479 | 6.76772 | 127 ft | 6 kts | 204° |
| 2026-05-05 19:49 | 51.28441 | 6.76785 | 123 ft | 6 kts | 148° |
| 2026-05-05 19:50 | 51.28413 | 6.76820 | 125 ft | 4 kts | 143° |
| 2026-05-05 19:50 | 51.28393 | 6.76844 | 127 ft | 5 kts | 143° |
| 2026-05-05 19:50 | 51.28350 | 6.76870 | 128 ft | 9 kts | 181° |
| 2026-05-05 19:50 | 51.28281 | 6.76858 | 130 ft | 9 kts | 186° |
| 2026-05-05 19:51 | 51.28226 | 6.76847 | 130 ft | 7 kts | 186° |
| 2026-05-05 19:51 | 51.28181 | 6.76838 | 130 ft | 6 kts | 186° |
| 2026-05-05 19:51 | 51.28145 | 6.76827 | 130 ft | 4 kts | 206° |
| 2026-05-05 19:51 | 51.28146 | 6.76798 | 130 ft | 4 kts | 301° |
| 2026-05-05 19:52 | 51.28154 | 6.76745 | 130 ft | 2 kts | 277° |
| 2026-05-05 19:52 | 51.28154 | 6.76737 | 130 ft | 0 kts | 277° |